sensor_id;sensor_type;location;lat;lon;timestamp;pressure;altitude;pressure_sealevel;temperature;humidity
53041;BME280;39326;42.650;23.248;2023-05-19T00:01:42;92784.34;;;9.33;91.74
53041;BME280;39326;42.650;23.248;2023-05-19T00:04:10;92784.41;;;9.44;90.76
53041;BME280;39326;42.650;23.248;2023-05-19T00:06:39;92781.41;;;9.45;90.72
53041;BME280;39326;42.650;23.248;2023-05-19T00:09:09;92783.66;;;9.43;91.00
53041;BME280;39326;42.650;23.248;2023-05-19T00:11:36;92779.50;;;9.49;90.31
53041;BME280;39326;42.650;23.248;2023-05-19T00:14:04;92785.97;;;9.48;89.35
53041;BME280;39326;42.650;23.248;2023-05-19T00:16:30;92784.06;;;9.45;89.17
53041;BME280;39326;42.650;23.248;2023-05-19T00:18:57;92778.16;;;9.22;91.13
53041;BME280;39326;42.650;23.248;2023-05-19T00:21:24;92782.03;;;9.28;91.03
53041;BME280;39326;42.650;23.248;2023-05-19T00:23:50;92767.97;;;9.31;90.44
53041;BME280;39326;42.650;23.248;2023-05-19T00:26:15;92779.03;;;9.37;90.11
53041;BME280;39326;42.650;23.248;2023-05-19T00:28:41;92774.50;;;9.41;90.99
53041;BME280;39326;42.650;23.248;2023-05-19T00:31:06;92765.44;;;9.45;90.32
53041;BME280;39326;42.650;23.248;2023-05-19T00:33:32;92766.47;;;9.34;91.54
53041;BME280;39326;42.650;23.248;2023-05-19T00:36:01;92763.16;;;9.47;90.47
53041;BME280;39326;42.650;23.248;2023-05-19T00:38:35;92768.09;;;9.49;90.14
53041;BME280;39326;42.650;23.248;2023-05-19T00:41:01;92774.22;;;9.57;89.52
53041;BME280;39326;42.650;23.248;2023-05-19T00:43:27;92758.97;;;9.50;89.82
53041;BME280;39326;42.650;23.248;2023-05-19T00:45:54;92753.56;;;9.36;90.95
53041;BME280;39326;42.650;23.248;2023-05-19T00:48:20;92760.47;;;9.47;90.51
53041;BME280;39326;42.650;23.248;2023-05-19T00:50:47;92758.88;;;9.36;91.17
53041;BME280;39326;42.650;23.248;2023-05-19T00:53:13;92763.09;;;9.44;90.32
53041;BME280;39326;42.650;23.248;2023-05-19T00:55:41;92754.81;;;9.52;89.52
53041;BME280;39326;42.650;23.248;2023-05-19T00:58:08;92752.03;;;9.38;90.28
53041;BME280;39326;42.650;23.248;2023-05-19T01:00:34;92753.22;;;9.44;90.25
53041;BME280;39326;42.650;23.248;2023-05-19T01:03:01;92754.38;;;9.43;89.40
53041;BME280;39326;42.650;23.248;2023-05-19T01:05:27;92748.63;;;9.38;89.92
53041;BME280;39326;42.650;23.248;2023-05-19T01:07:52;92751.28;;;9.38;89.73
53041;BME280;39326;42.650;23.248;2023-05-19T01:10:20;92754.31;;;9.36;88.98
53041;BME280;39326;42.650;23.248;2023-05-19T01:12:46;92753.13;;;9.26;89.81
53041;BME280;39326;42.650;23.248;2023-05-19T01:15:12;92757.31;;;9.27;89.36
53041;BME280;39326;42.650;23.248;2023-05-19T01:20:21;92758.78;;;9.21;89.50
53041;BME280;39326;42.650;23.248;2023-05-19T01:26:10;92767.25;;;8.93;90.01
53041;BME280;39326;42.650;23.248;2023-05-19T01:28:58;92761.63;;;8.98;89.73
53041;BME280;39326;42.650;23.248;2023-05-19T01:31:27;92753.53;;;8.88;90.81
53041;BME280;39326;42.650;23.248;2023-05-19T01:33:53;92753.19;;;8.89;90.44
53041;BME280;39326;42.650;23.248;2023-05-19T01:36:20;92755.50;;;8.94;89.50
53041;BME280;39326;42.650;23.248;2023-05-19T01:38:50;92757.03;;;8.95;89.53
53041;BME280;39326;42.650;23.248;2023-05-19T01:41:18;92754.72;;;8.94;89.73
53041;BME280;39326;42.650;23.248;2023-05-19T01:43:45;92756.22;;;8.91;89.36
53041;BME280;39326;42.650;23.248;2023-05-19T01:46:11;92755.16;;;8.96;89.27
53041;BME280;39326;42.650;23.248;2023-05-19T01:48:38;92740.53;;;8.79;89.87
53041;BME280;39326;42.650;23.248;2023-05-19T01:51:03;92759.56;;;8.81;89.70
53041;BME280;39326;42.650;23.248;2023-05-19T01:53:29;92767.13;;;8.79;90.21
53041;BME280;39326;42.650;23.248;2023-05-19T01:55:55;92762.59;;;8.80;89.97
53041;BME280;39326;42.650;23.248;2023-05-19T02:09:40;92764.22;;;8.54;91.88
53041;BME280;39326;42.650;23.248;2023-05-19T02:14:55;92763.16;;;8.59;92.06
53041;BME280;39326;42.650;23.248;2023-05-19T02:17:26;92768.59;;;8.73;91.13
53041;BME280;39326;42.650;23.248;2023-05-19T02:19:53;92764.78;;;8.70;91.53
53041;BME280;39326;42.650;23.248;2023-05-19T02:22:19;92776.63;;;8.77;91.45
53041;BME280;39326;42.650;23.248;2023-05-19T02:24:44;92769.78;;;8.79;91.38
53041;BME280;39326;42.650;23.248;2023-05-19T02:27:11;92769.06;;;8.82;91.10
53041;BME280;39326;42.650;23.248;2023-05-19T02:29:37;92769.09;;;8.86;91.15
53041;BME280;39326;42.650;23.248;2023-05-19T02:32:02;92778.06;;;8.70;92.12
53041;BME280;39326;42.650;23.248;2023-05-19T02:34:28;92772.47;;;8.79;91.81
53041;BME280;39326;42.650;23.248;2023-05-19T02:36:53;92766.81;;;8.84;91.53
53041;BME280;39326;42.650;23.248;2023-05-19T02:39:20;92767.59;;;8.88;91.90
53041;BME280;39326;42.650;23.248;2023-05-19T02:41:46;92774.81;;;8.88;91.01
53041;BME280;39326;42.650;23.248;2023-05-19T02:44:11;92774.72;;;8.77;92.07
53041;BME280;39326;42.650;23.248;2023-05-19T02:46:36;92779.31;;;8.80;92.10
53041;BME280;39326;42.650;23.248;2023-05-19T02:49:02;92782.41;;;8.86;91.40
53041;BME280;39326;42.650;23.248;2023-05-19T02:51:27;92781.63;;;8.85;91.80
53041;BME280;39326;42.650;23.248;2023-05-19T02:53:53;92778.97;;;8.85;91.41
53041;BME280;39326;42.650;23.248;2023-05-19T02:56:18;92782.34;;;8.79;91.36
53041;BME280;39326;42.650;23.248;2023-05-19T02:58:44;92783.03;;;8.72;92.14
53041;BME280;39326;42.650;23.248;2023-05-19T03:01:09;92778.91;;;8.78;91.56
53041;BME280;39326;42.650;23.248;2023-05-19T03:03:35;92771.59;;;8.68;91.88
53041;BME280;39326;42.650;23.248;2023-05-19T03:06:00;92781.81;;;8.66;91.79
53041;BME280;39326;42.650;23.248;2023-05-19T03:08:26;92787.13;;;8.66;91.98
53041;BME280;39326;42.650;23.248;2023-05-19T03:10:52;92786.00;;;8.67;91.59
53041;BME280;39326;42.650;23.248;2023-05-19T03:13:17;92791.31;;;8.63;92.05
53041;BME280;39326;42.650;23.248;2023-05-19T03:15:43;92792.91;;;8.71;91.39
53041;BME280;39326;42.650;23.248;2023-05-19T03:18:09;92789.91;;;8.77;91.63
53041;BME280;39326;42.650;23.248;2023-05-19T03:20:36;92780.38;;;8.72;91.30
53041;BME280;39326;42.650;23.248;2023-05-19T03:23:02;92792.13;;;8.71;91.98
53041;BME280;39326;42.650;23.248;2023-05-19T03:25:27;92789.53;;;8.78;91.70
53041;BME280;39326;42.650;23.248;2023-05-19T03:27:54;92802.84;;;8.82;91.74
53041;BME280;39326;42.650;23.248;2023-05-19T03:30:19;92788.09;;;8.88;91.56
53041;BME280;39326;42.650;23.248;2023-05-19T03:32:45;92782.63;;;8.70;91.63
53041;BME280;39326;42.650;23.248;2023-05-19T03:35:10;92789.53;;;8.78;91.93
53041;BME280;39326;42.650;23.248;2023-05-19T03:37:36;92793.78;;;8.86;92.23
53041;BME280;39326;42.650;23.248;2023-05-19T03:40:01;92788.19;;;8.95;91.05
53041;BME280;39326;42.650;23.248;2023-05-19T03:42:28;92788.81;;;8.81;92.25
53041;BME280;39326;42.650;23.248;2023-05-19T03:44:53;92793.09;;;8.93;92.35
53041;BME280;39326;42.650;23.248;2023-05-19T03:47:19;92788.97;;;8.99;92.27
53041;BME280;39326;42.650;23.248;2023-05-19T03:49:44;92778.78;;;9.05;92.05
53041;BME280;39326;42.650;23.248;2023-05-19T03:52:10;92778.34;;;8.99;93.00
53041;BME280;39326;42.650;23.248;2023-05-19T03:54:37;92784.41;;;8.96;92.98
53041;BME280;39326;42.650;23.248;2023-05-19T03:57:04;92789.47;;;9.12;92.35
53041;BME280;39326;42.650;23.248;2023-05-19T03:59:29;92790.53;;;9.04;93.25
53041;BME280;39326;42.650;23.248;2023-05-19T04:01:55;92790.56;;;9.07;92.83
53041;BME280;39326;42.650;23.248;2023-05-19T04:04:21;92791.84;;;9.20;92.12
53041;BME280;39326;42.650;23.248;2023-05-19T04:06:47;92785.72;;;9.20;92.58
53041;BME280;39326;42.650;23.248;2023-05-19T04:09:14;92791.47;;;9.25;92.63
53041;BME280;39326;42.650;23.248;2023-05-19T04:11:40;92797.22;;;9.31;92.30
53041;BME280;39326;42.650;23.248;2023-05-19T04:14:06;92804.94;;;9.40;92.51
53041;BME280;39326;42.650;23.248;2023-05-19T04:16:32;92794.34;;;9.47;92.39
53041;BME280;39326;42.650;23.248;2023-05-19T04:18:57;92802.38;;;9.58;91.97
53041;BME280;39326;42.650;23.248;2023-05-19T04:21:23;92807.00;;;9.64;91.86
53041;BME280;39326;42.650;23.248;2023-05-19T04:23:48;92804.78;;;9.73;91.47
53041;BME280;39326;42.650;23.248;2023-05-19T04:26:14;92808.97;;;9.74;91.71
53041;BME280;39326;42.650;23.248;2023-05-19T04:28:40;92812.81;;;9.80;91.69
53041;BME280;39326;42.650;23.248;2023-05-19T04:31:09;92811.00;;;9.95;91.33
53041;BME280;39326;42.650;23.248;2023-05-19T04:33:38;92812.63;;;10.07;90.38
53041;BME280;39326;42.650;23.248;2023-05-19T04:36:05;92816.03;;;10.04;90.29
53041;BME280;39326;42.650;23.248;2023-05-19T04:38:33;92813.78;;;10.13;90.32
53041;BME280;39326;42.650;23.248;2023-05-19T04:40:59;92814.63;;;10.21;89.63
53041;BME280;39326;42.650;23.248;2023-05-19T04:43:26;92816.94;;;10.29;89.38
53041;BME280;39326;42.650;23.248;2023-05-19T04:45:52;92821.84;;;10.24;90.03
53041;BME280;39326;42.650;23.248;2023-05-19T04:48:18;92829.13;;;10.30;88.52
53041;BME280;39326;42.650;23.248;2023-05-19T04:50:46;92812.38;;;10.30;88.23
53041;BME280;39326;42.650;23.248;2023-05-19T04:53:13;92826.94;;;10.47;87.75
53041;BME280;39326;42.650;23.248;2023-05-19T04:55:39;92817.84;;;10.66;87.16
53041;BME280;39326;42.650;23.248;2023-05-19T04:58:04;92814.41;;;10.61;87.20
53041;BME280;39326;42.650;23.248;2023-05-19T05:00:30;92827.44;;;10.77;86.88
53041;BME280;39326;42.650;23.248;2023-05-19T05:02:56;92824.00;;;10.87;86.29
53041;BME280;39326;42.650;23.248;2023-05-19T05:05:22;92829.72;;;10.79;85.60
53041;BME280;39326;42.650;23.248;2023-05-19T05:07:49;92824.75;;;10.81;85.59
53041;BME280;39326;42.650;23.248;2023-05-19T05:10:15;92829.72;;;10.79;85.64
53041;BME280;39326;42.650;23.248;2023-05-19T05:12:41;92824.00;;;10.87;85.95
53041;BME280;39326;42.650;23.248;2023-05-19T05:15:08;92821.75;;;10.97;85.44
53041;BME280;39326;42.650;23.248;2023-05-19T05:17:34;92814.91;;;10.99;85.63
53041;BME280;39326;42.650;23.248;2023-05-19T05:20:01;92821.00;;;11.03;85.71
53041;BME280;39326;42.650;23.248;2023-05-19T05:22:29;92823.31;;;11.15;85.01
53041;BME280;39326;42.650;23.248;2023-05-19T05:24:55;92824.84;;;11.20;85.92
53041;BME280;39326;42.650;23.248;2023-05-19T05:27:20;92825.25;;;11.29;85.71
53041;BME280;39326;42.650;23.248;2023-05-19T05:29:46;92822.94;;;11.31;85.43
53041;BME280;39326;42.650;23.248;2023-05-19T05:32:12;92822.16;;;11.20;84.82
53041;BME280;39326;42.650;23.248;2023-05-19T05:34:39;92819.13;;;11.32;85.13
53041;BME280;39326;42.650;23.248;2023-05-19T05:37:06;92828.66;;;11.23;83.57
53041;BME280;39326;42.650;23.248;2023-05-19T05:39:33;92830.16;;;11.13;83.47
53041;BME280;39326;42.650;23.248;2023-05-19T05:41:59;92830.97;;;11.24;84.02
53041;BME280;39326;42.650;23.248;2023-05-19T05:44:25;92832.53;;;11.43;83.93
53041;BME280;39326;42.650;23.248;2023-05-19T05:46:52;92839.41;;;11.58;83.83
53041;BME280;39326;42.650;23.248;2023-05-19T05:49:18;92824.53;;;11.79;83.07
53041;BME280;39326;42.650;23.248;2023-05-19T05:51:45;92836.38;;;11.85;81.83
53041;BME280;39326;42.650;23.248;2023-05-19T05:54:11;92824.91;;;11.88;81.70
53041;BME280;39326;42.650;23.248;2023-05-19T05:56:37;92833.66;;;12.06;81.23
53041;BME280;39326;42.650;23.248;2023-05-19T05:59:04;92841.66;;;12.24;80.99
53041;BME280;39326;42.650;23.248;2023-05-19T06:01:30;92845.84;;;12.25;78.44
53041;BME280;39326;42.650;23.248;2023-05-19T06:03:56;92844.28;;;12.28;77.75
53041;BME280;39326;42.650;23.248;2023-05-19T06:06:22;92841.63;;;12.31;77.63
53041;BME280;39326;42.650;23.248;2023-05-19T06:08:48;92864.13;;;12.51;77.47
53041;BME280;39326;42.650;23.248;2023-05-19T06:11:13;92855.66;;;12.74;76.41
53041;BME280;39326;42.650;23.248;2023-05-19T06:13:39;92856.75;;;12.84;76.61
53041;BME280;39326;42.650;23.248;2023-05-19T06:16:06;92853.72;;;12.82;76.67
53041;BME280;39326;42.650;23.248;2023-05-19T06:18:32;92847.13;;;13.01;76.39
53041;BME280;39326;42.650;23.248;2023-05-19T06:20:59;92860.19;;;12.92;76.50
53041;BME280;39326;42.650;23.248;2023-05-19T06:23:26;92854.00;;;13.06;76.72
53041;BME280;39326;42.650;23.248;2023-05-19T06:25:53;92849.31;;;13.20;76.38
53041;BME280;39326;42.650;23.248;2023-05-19T06:28:21;92843.69;;;13.00;75.36
53041;BME280;39326;42.650;23.248;2023-05-19T06:30:47;92857.06;;;13.08;76.34
53041;BME280;39326;42.650;23.248;2023-05-19T06:33:14;92855.34;;;13.39;76.14
53041;BME280;39326;42.650;23.248;2023-05-19T06:35:40;92853.72;;;13.52;75.89
53041;BME280;39326;42.650;23.248;2023-05-19T06:38:06;92857.28;;;13.35;73.89
53041;BME280;39326;42.650;23.248;2023-05-19T06:40:32;92853.72;;;13.52;73.98
53041;BME280;39326;42.650;23.248;2023-05-19T06:42:58;92855.53;;;13.66;74.04
53041;BME280;39326;42.650;23.248;2023-05-19T06:45:24;92855.88;;;13.71;73.28
53041;BME280;39326;42.650;23.248;2023-05-19T06:47:51;92856.53;;;13.90;73.28
53041;BME280;39326;42.650;23.248;2023-05-19T06:50:18;92853.81;;;13.97;73.60
53041;BME280;39326;42.650;23.248;2023-05-19T06:52:45;92862.25;;;13.95;73.44
53041;BME280;39326;42.650;23.248;2023-05-19T06:55:11;92857.56;;;14.06;72.70
53041;BME280;39326;42.650;23.248;2023-05-19T06:57:38;92861.25;;;14.23;72.08
53041;BME280;39326;42.650;23.248;2023-05-19T07:00:04;92868.06;;;14.31;72.18
53041;BME280;39326;42.650;23.248;2023-05-19T07:02:33;92870.59;;;14.49;70.89
53041;BME280;39326;42.650;23.248;2023-05-19T07:04:59;92872.25;;;14.36;69.54
53041;BME280;39326;42.650;23.248;2023-05-19T07:07:26;92867.19;;;14.42;70.72
53041;BME280;39326;42.650;23.248;2023-05-19T07:09:52;92871.78;;;14.45;72.22
53041;BME280;39326;42.650;23.248;2023-05-19T07:12:17;92878.38;;;14.36;71.97
53041;BME280;39326;42.650;23.248;2023-05-19T07:14:43;92878.69;;;13.97;72.83
53041;BME280;39326;42.650;23.248;2023-05-19T07:17:10;92891.47;;;13.75;72.31
53041;BME280;39326;42.650;23.248;2023-05-19T07:19:37;92887.63;;;13.76;72.90
53041;BME280;39326;42.650;23.248;2023-05-19T07:22:03;92889.91;;;13.81;72.42
53041;BME280;39326;42.650;23.248;2023-05-19T07:24:30;92890.16;;;14.05;70.70
53041;BME280;39326;42.650;23.248;2023-05-19T07:26:56;92885.00;;;14.21;70.98
53041;BME280;39326;42.650;23.248;2023-05-19T07:29:23;92893.09;;;14.18;69.60
53041;BME280;39326;42.650;23.248;2023-05-19T07:31:49;92889.59;;;14.24;70.90
53041;BME280;39326;42.650;23.248;2023-05-19T07:34:22;92890.88;;;14.09;71.64
53041;BME280;39326;42.650;23.248;2023-05-19T07:36:48;92888.28;;;14.43;70.52
53041;BME280;39326;42.650;23.248;2023-05-19T07:39:15;92884.06;;;14.42;70.77
53041;BME280;39326;42.650;23.248;2023-05-19T07:41:40;92885.63;;;14.39;69.73
53041;BME280;39326;42.650;23.248;2023-05-19T07:44:06;92882.09;;;14.46;70.56
53041;BME280;39326;42.650;23.248;2023-05-19T07:46:33;92890.16;;;14.46;71.05
53041;BME280;39326;42.650;23.248;2023-05-19T07:48:59;92887.06;;;14.48;69.97
53041;BME280;39326;42.650;23.248;2023-05-19T07:51:26;92889.13;;;14.74;70.36
53041;BME280;39326;42.650;23.248;2023-05-19T07:53:52;92887.28;;;15.02;70.67
53041;BME280;39326;42.650;23.248;2023-05-19T07:56:18;92874.94;;;15.08;69.39
53041;BME280;39326;42.650;23.248;2023-05-19T07:58:44;92888.47;;;15.31;68.98
53041;BME280;39326;42.650;23.248;2023-05-19T08:01:10;92889.00;;;15.50;68.19
53041;BME280;39326;42.650;23.248;2023-05-19T08:03:36;92885.38;;;15.60;69.52
53041;BME280;39326;42.650;23.248;2023-05-19T08:06:02;92883.00;;;15.92;68.01
53041;BME280;39326;42.650;23.248;2023-05-19T08:08:29;92880.88;;;16.07;68.16
53041;BME280;39326;42.650;23.248;2023-05-19T08:10:55;92878.09;;;16.11;67.92
53041;BME280;39326;42.650;23.248;2023-05-19T08:13:21;92881.53;;;15.88;67.63
53041;BME280;39326;42.650;23.248;2023-05-19T08:15:47;92880.19;;;15.72;66.44
53041;BME280;39326;42.650;23.248;2023-05-19T08:18:14;92871.59;;;15.58;66.77
53041;BME280;39326;42.650;23.248;2023-05-19T08:20:41;92872.03;;;16.07;68.35
53041;BME280;39326;42.650;23.248;2023-05-19T08:23:07;92883.56;;;16.31;66.59
53041;BME280;39326;42.650;23.248;2023-05-19T08:25:34;92880.25;;;16.66;67.16
53041;BME280;39326;42.650;23.248;2023-05-19T08:28:00;92881.56;;;16.78;64.18
53041;BME280;39326;42.650;23.248;2023-05-19T08:30:28;92879.47;;;16.89;64.18
53041;BME280;39326;42.650;23.248;2023-05-19T08:32:54;92878.84;;;17.01;63.84
53041;BME280;39326;42.650;23.248;2023-05-19T08:35:20;92868.81;;;16.82;63.03
53041;BME280;39326;42.650;23.248;2023-05-19T08:37:47;92873.66;;;16.91;63.68
53041;BME280;39326;42.650;23.248;2023-05-19T08:40:16;92883.19;;;17.15;62.32
53041;BME280;39326;42.650;23.248;2023-05-19T08:42:44;92874.13;;;17.61;63.17
53041;BME280;39326;42.650;23.248;2023-05-19T08:45:10;92878.97;;;17.70;62.19
53041;BME280;39326;42.650;23.248;2023-05-19T08:47:37;92879.69;;;18.07;60.42
53041;BME280;39326;42.650;23.248;2023-05-19T08:50:05;92882.31;;;17.94;58.86
53041;BME280;39326;42.650;23.248;2023-05-19T08:53:11;92886.19;;;18.09;58.99
53041;BME280;39326;42.650;23.248;2023-05-19T08:58:10;92878.69;;;18.62;57.11
53041;BME280;39326;42.650;23.248;2023-05-19T09:00:37;92876.41;;;18.32;57.87
53041;BME280;39326;42.650;23.248;2023-05-19T09:03:04;92876.66;;;18.21;57.34
53041;BME280;39326;42.650;23.248;2023-05-19T09:05:31;92875.72;;;18.44;58.28
53041;BME280;39326;42.650;23.248;2023-05-19T09:07:57;92882.84;;;18.67;58.75
53041;BME280;39326;42.650;23.248;2023-05-19T09:10:27;92872.25;;;18.27;57.60
53041;BME280;39326;42.650;23.248;2023-05-19T09:12:53;92870.75;;;18.26;59.16
53041;BME280;39326;42.650;23.248;2023-05-19T09:15:21;92859.66;;;18.37;58.33
53041;BME280;39326;42.650;23.248;2023-05-19T09:18:07;92875.03;;;18.24;58.25
53041;BME280;39326;42.650;23.248;2023-05-19T09:20:36;92857.06;;;18.62;59.15
53041;BME280;39326;42.650;23.248;2023-05-19T09:23:02;92870.38;;;18.57;58.37
53041;BME280;39326;42.650;23.248;2023-05-19T09:25:30;92869.53;;;18.44;57.66
53041;BME280;39326;42.650;23.248;2023-05-19T09:27:56;92863.94;;;18.67;58.11
53041;BME280;39326;42.650;23.248;2023-05-19T09:30:23;92864.88;;;18.77;57.47
53041;BME280;39326;42.650;23.248;2023-05-19T09:32:50;92857.63;;;18.86;56.38
53041;BME280;39326;42.650;23.248;2023-05-19T09:35:16;92858.88;;;18.98;54.95
53041;BME280;39326;42.650;23.248;2023-05-19T09:37:44;92869.13;;;18.90;55.45
53041;BME280;39326;42.650;23.248;2023-05-19T09:40:13;92866.25;;;18.81;55.18
53041;BME280;39326;42.650;23.248;2023-05-19T09:42:40;92857.75;;;18.83;55.11
53041;BME280;39326;42.650;23.248;2023-05-19T09:45:08;92855.59;;;19.19;56.57
53041;BME280;39326;42.650;23.248;2023-05-19T09:47:38;92855.97;;;19.60;54.18
53041;BME280;39326;42.650;23.248;2023-05-19T09:50:05;92852.97;;;19.58;53.06
53041;BME280;39326;42.650;23.248;2023-05-19T09:52:38;92859.13;;;19.58;53.62
53041;BME280;39326;42.650;23.248;2023-05-19T09:55:08;92856.31;;;19.74;52.93
53041;BME280;39326;42.650;23.248;2023-05-19T09:57:35;92851.41;;;19.57;53.42
53041;BME280;39326;42.650;23.248;2023-05-19T10:00:06;92850.78;;;19.53;53.95
53041;BME280;39326;42.650;23.248;2023-05-19T10:02:46;92846.66;;;19.61;55.35
53041;BME280;39326;42.650;23.248;2023-05-19T10:05:19;92857.13;;;19.46;51.15
53041;BME280;39326;42.650;23.248;2023-05-19T10:07:49;92847.97;;;19.02;51.13
53041;BME280;39326;42.650;23.248;2023-05-19T10:10:16;92852.75;;;19.10;53.90
53041;BME280;39326;42.650;23.248;2023-05-19T10:12:45;92846.84;;;19.28;52.65
53041;BME280;39326;42.650;23.248;2023-05-19T10:15:13;92841.56;;;19.63;50.47
53041;BME280;39326;42.650;23.248;2023-05-19T10:17:41;92849.06;;;19.84;51.58
53041;BME280;39326;42.650;23.248;2023-05-19T10:20:08;92842.75;;;20.00;51.37
53041;BME280;39326;42.650;23.248;2023-05-19T10:22:34;92839.72;;;19.98;50.76
53041;BME280;39326;42.650;23.248;2023-05-19T10:25:00;92841.38;;;19.95;49.69
53041;BME280;39326;42.650;23.248;2023-05-19T10:27:27;92834.75;;;20.09;49.70
53041;BME280;39326;42.650;23.248;2023-05-19T10:29:56;92831.69;;;20.33;49.90
53041;BME280;39326;42.650;23.248;2023-05-19T10:32:26;92835.53;;;20.44;48.18
53041;BME280;39326;42.650;23.248;2023-05-19T10:40:17;92831.59;;;21.15;46.05
53041;BME280;39326;42.650;23.248;2023-05-19T10:42:52;92831.59;;;21.15;47.34
53041;BME280;39326;42.650;23.248;2023-05-19T10:45:26;92826.66;;;21.22;45.29
53041;BME280;39326;42.650;23.248;2023-05-19T10:47:54;92820.59;;;21.18;47.14
53041;BME280;39326;42.650;23.248;2023-05-19T10:50:21;92814.38;;;21.08;46.69
53041;BME280;39326;42.650;23.248;2023-05-19T10:52:52;92801.03;;;21.01;45.25
53041;BME280;39326;42.650;23.248;2023-05-19T10:58:12;92809.66;;;21.62;45.03
53041;BME280;39326;42.650;23.248;2023-05-19T11:00:39;92807.94;;;21.46;43.87
53041;BME280;39326;42.650;23.248;2023-05-19T11:03:12;92808.50;;;21.72;44.13
53041;BME280;39326;42.650;23.248;2023-05-19T11:05:39;92814.19;;;21.96;45.20
53041;BME280;39326;42.650;23.248;2023-05-19T11:08:05;92805.47;;;22.10;42.52
53041;BME280;39326;42.650;23.248;2023-05-19T11:10:37;92812.56;;;21.68;41.46
53041;BME280;39326;42.650;23.248;2023-05-19T11:13:04;92808.97;;;21.40;42.68
53041;BME280;39326;42.650;23.248;2023-05-19T11:15:34;92818.00;;;21.37;43.50
53041;BME280;39326;42.650;23.248;2023-05-19T11:18:04;92806.09;;;21.34;45.26
53041;BME280;39326;42.650;23.248;2023-05-19T11:20:30;92812.94;;;21.57;46.03
53041;BME280;39326;42.650;23.248;2023-05-19T11:23:09;92806.47;;;21.54;43.29
53041;BME280;39326;42.650;23.248;2023-05-19T11:25:49;92804.66;;;21.92;43.25
53041;BME280;39326;42.650;23.248;2023-05-19T11:28:17;92801.28;;;21.78;41.92
53041;BME280;39326;42.650;23.248;2023-05-19T11:30:45;92801.09;;;22.04;43.61
53041;BME280;39326;42.650;23.248;2023-05-19T11:33:11;92797.81;;;22.36;42.92
53041;BME280;39326;42.650;23.248;2023-05-19T11:35:38;92796.84;;;22.03;41.76
53041;BME280;39326;42.650;23.248;2023-05-19T11:38:05;92790.16;;;21.85;42.39
53041;BME280;39326;42.650;23.248;2023-05-19T11:40:31;92787.44;;;21.85;43.52
53041;BME280;39326;42.650;23.248;2023-05-19T11:42:57;92798.06;;;21.61;42.98
53041;BME280;39326;42.650;23.248;2023-05-19T11:45:28;92791.81;;;21.52;43.42
53041;BME280;39326;42.650;23.248;2023-05-19T11:47:59;92795.47;;;21.05;43.22
53041;BME280;39326;42.650;23.248;2023-05-19T11:50:25;92803.50;;;21.30;44.90
53041;BME280;39326;42.650;23.248;2023-05-19T11:52:52;92804.78;;;21.17;44.62
53041;BME280;39326;42.650;23.248;2023-05-19T11:55:18;92798.38;;;20.89;45.43
53041;BME280;39326;42.650;23.248;2023-05-19T11:57:56;92804.69;;;20.64;50.46
53041;BME280;39326;42.650;23.248;2023-05-19T12:00:24;92830.38;;;20.12;50.64
53041;BME280;39326;42.650;23.248;2023-05-19T12:02:50;92824.53;;;19.24;56.68
53041;BME280;39326;42.650;23.248;2023-05-19T12:05:24;92847.06;;;18.63;60.19
53041;BME280;39326;42.650;23.248;2023-05-19T12:07:51;92846.44;;;18.10;61.12
53041;BME280;39326;42.650;23.248;2023-05-19T12:10:22;92842.56;;;17.42;60.00
53041;BME280;39326;42.650;23.248;2023-05-19T12:12:49;92842.69;;;16.99;60.36
53041;BME280;39326;42.650;23.248;2023-05-19T12:15:21;92852.41;;;16.73;60.81
53041;BME280;39326;42.650;23.248;2023-05-19T12:17:57;92859.16;;;16.41;63.31
53041;BME280;39326;42.650;23.248;2023-05-19T12:20:24;92849.38;;;16.04;60.50
53041;BME280;39326;42.650;23.248;2023-05-19T12:22:51;92854.47;;;15.71;59.50
53041;BME280;39326;42.650;23.248;2023-05-19T12:25:17;92848.63;;;15.23;62.27
53041;BME280;39326;42.650;23.248;2023-05-19T12:27:44;92841.63;;;15.02;61.91
53041;BME280;39326;42.650;23.248;2023-05-19T12:30:11;92858.41;;;14.75;64.34
53041;BME280;39326;42.650;23.248;2023-05-19T12:32:37;92847.38;;;14.66;65.91
53041;BME280;39326;42.650;23.248;2023-05-19T12:35:04;92836.38;;;14.57;66.06
53041;BME280;39326;42.650;23.248;2023-05-19T12:37:32;92848.38;;;14.45;67.31
53041;BME280;39326;42.650;23.248;2023-05-19T12:39:59;92840.06;;;14.32;68.06
53041;BME280;39326;42.650;23.248;2023-05-19T12:42:29;92839.75;;;14.27;69.08
53041;BME280;39326;42.650;23.248;2023-05-19T12:44:56;92840.09;;;14.29;67.89
53041;BME280;39326;42.650;23.248;2023-05-19T12:47:28;92837.38;;;14.36;68.28
53041;BME280;39326;42.650;23.248;2023-05-19T12:52:28;92831.25;;;14.32;66.55
53041;BME280;39326;42.650;23.248;2023-05-19T12:55:01;92794.97;;;14.20;66.23
53041;BME280;39326;42.650;23.248;2023-05-19T12:57:29;92811.81;;;14.58;64.39
53041;BME280;39326;42.650;23.248;2023-05-19T13:00:01;92817.16;;;14.62;64.78
53041;BME280;39326;42.650;23.248;2023-05-19T13:02:29;92816.16;;;14.79;63.73
53041;BME280;39326;42.650;23.248;2023-05-19T13:04:55;92812.25;;;14.87;64.25
53041;BME280;39326;42.650;23.248;2023-05-19T13:07:23;92801.03;;;14.96;63.22
53041;BME280;39326;42.650;23.248;2023-05-19T13:09:49;92802.41;;;15.08;62.01
53041;BME280;39326;42.650;23.248;2023-05-19T13:12:15;92806.88;;;15.18;62.07
53041;BME280;39326;42.650;23.248;2023-05-19T13:14:41;92810.13;;;15.33;60.47
53041;BME280;39326;42.650;23.248;2023-05-19T13:17:08;92801.91;;;15.43;62.09
53041;BME280;39326;42.650;23.248;2023-05-19T13:19:35;92805.13;;;15.58;60.96
53041;BME280;39326;42.650;23.248;2023-05-19T13:22:01;92799.72;;;15.62;60.87
53041;BME280;39326;42.650;23.248;2023-05-19T13:24:28;92800.34;;;15.69;60.44
53041;BME280;39326;42.650;23.248;2023-05-19T13:26:54;92799.06;;;15.78;60.11